sensor_id;sensor_type;location;lat;lon;timestamp;P1;durP1;ratioP1;P2;durP2;ratioP2
60641;SDS011;46837;52.446;-1.930;2023-03-01T00:00:07;11.64;;;5.96;;
60641;SDS011;46837;52.446;-1.930;2023-03-01T00:01:08;7.90;;;6.78;;
60641;SDS011;46837;52.446;-1.930;2023-03-01T00:02:07;7.80;;;5.28;;
60641;SDS011;46837;52.446;-1.930;2023-03-01T00:03:07;8.32;;;6.48;;
60641;SDS011;46837;52.446;-1.930;2023-03-01T00:04:07;6.44;;;5.50;;
60641;SDS011;46837;52.446;-1.930;2023-03-01T00:05:07;9.78;;;5.84;;
60641;SDS011;46837;52.446;-1.930;2023-03-01T00:06:07;8.82;;;5.12;;
60641;SDS011;46837;52.446;-1.930;2023-03-01T00:07:07;8.54;;;5.98;;
60641;SDS011;46837;52.446;-1.930;2023-03-01T00:08:07;10.98;;;7.50;;
60641;SDS011;46837;52.446;-1.930;2023-03-01T00:09:07;9.44;;;5.94;;
60641;SDS011;46837;52.446;-1.930;2023-03-01T00:10:07;12.62;;;6.78;;
60641;SDS011;46837;52.446;-1.930;2023-03-01T00:11:13;12.04;;;7.58;;
60641;SDS011;46837;52.446;-1.930;2023-03-01T00:12:07;6.58;;;5.68;;
60641;SDS011;46837;52.446;-1.930;2023-03-01T00:13:07;11.08;;;7.28;;
60641;SDS011;46837;52.446;-1.930;2023-03-01T00:14:07;10.20;;;5.98;;
60641;SDS011;46837;52.446;-1.930;2023-03-01T00:15:07;10.46;;;6.14;;
60641;SDS011;46837;52.446;-1.930;2023-03-01T00:16:08;8.38;;;7.06;;
60641;SDS011;46837;52.446;-1.930;2023-03-01T00:17:07;10.40;;;7.30;;
60641;SDS011;46837;52.446;-1.930;2023-03-01T00:18:07;11.56;;;7.20;;
60641;SDS011;46837;52.446;-1.930;2023-03-01T00:19:07;12.28;;;8.14;;
60641;SDS011;46837;52.446;-1.930;2023-03-01T00:20:10;16.84;;;7.80;;
60641;SDS011;46837;52.446;-1.930;2023-03-01T00:21:07;15.56;;;6.44;;
60641;SDS011;46837;52.446;-1.930;2023-03-01T00:22:07;9.62;;;7.60;;
60641;SDS011;46837;52.446;-1.930;2023-03-01T00:23:07;10.50;;;7.38;;
60641;SDS011;46837;52.446;-1.930;2023-03-01T00:24:07;11.74;;;7.74;;
60641;SDS011;46837;52.446;-1.930;2023-03-01T00:25:07;10.56;;;8.00;;
60641;SDS011;46837;52.446;-1.930;2023-03-01T00:26:08;11.18;;;7.56;;
60641;SDS011;46837;52.446;-1.930;2023-03-01T00:27:07;14.86;;;7.94;;
60641;SDS011;46837;52.446;-1.930;2023-03-01T00:28:07;14.78;;;9.38;;
60641;SDS011;46837;52.446;-1.930;2023-03-01T00:29:07;15.86;;;7.72;;
60641;SDS011;46837;52.446;-1.930;2023-03-01T00:30:07;12.74;;;7.90;;
60641;SDS011;46837;52.446;-1.930;2023-03-01T00:31:08;15.22;;;8.44;;
60641;SDS011;46837;52.446;-1.930;2023-03-01T00:32:07;12.40;;;8.28;;
60641;SDS011;46837;52.446;-1.930;2023-03-01T00:33:07;10.48;;;8.42;;
60641;SDS011;46837;52.446;-1.930;2023-03-01T00:34:07;8.08;;;6.96;;
60641;SDS011;46837;52.446;-1.930;2023-03-01T00:35:07;13.62;;;8.96;;
60641;SDS011;46837;52.446;-1.930;2023-03-01T00:36:07;11.16;;;7.40;;
60641;SDS011;46837;52.446;-1.930;2023-03-01T00:37:07;13.22;;;7.96;;
60641;SDS011;46837;52.446;-1.930;2023-03-01T00:38:07;14.74;;;7.80;;
60641;SDS011;46837;52.446;-1.930;2023-03-01T00:39:09;13.20;;;8.34;;
60641;SDS011;46837;52.446;-1.930;2023-03-01T00:40:07;13.56;;;7.64;;
60641;SDS011;46837;52.446;-1.930;2023-03-01T00:41:08;7.80;;;6.90;;
60641;SDS011;46837;52.446;-1.930;2023-03-01T00:42:07;12.20;;;7.40;;
60641;SDS011;46837;52.446;-1.930;2023-03-01T00:43:07;10.28;;;6.86;;
60641;SDS011;46837;52.446;-1.930;2023-03-01T00:44:07;11.98;;;7.04;;
60641;SDS011;46837;52.446;-1.930;2023-03-01T00:45:07;11.34;;;7.88;;
60641;SDS011;46837;52.446;-1.930;2023-03-01T00:46:08;16.10;;;6.78;;
60641;SDS011;46837;52.446;-1.930;2023-03-01T00:47:07;13.66;;;7.08;;
60641;SDS011;46837;52.446;-1.930;2023-03-01T00:48:07;9.92;;;7.74;;
60641;SDS011;46837;52.446;-1.930;2023-03-01T00:49:07;8.26;;;7.00;;
60641;SDS011;46837;52.446;-1.930;2023-03-01T00:50:07;10.34;;;7.54;;
60641;SDS011;46837;52.446;-1.930;2023-03-01T00:51:10;10.00;;;7.08;;
60641;SDS011;46837;52.446;-1.930;2023-03-01T00:52:07;11.26;;;6.90;;
60641;SDS011;46837;52.446;-1.930;2023-03-01T00:53:07;12.92;;;6.98;;
60641;SDS011;46837;52.446;-1.930;2023-03-01T00:54:07;8.62;;;6.44;;
60641;SDS011;46837;52.446;-1.930;2023-03-01T00:55:07;13.08;;;8.20;;
60641;SDS011;46837;52.446;-1.930;2023-03-01T00:56:07;16.42;;;7.82;;
60641;SDS011;46837;52.446;-1.930;2023-03-01T00:57:07;9.80;;;7.10;;
60641;SDS011;46837;52.446;-1.930;2023-03-01T00:58:07;17.32;;;8.08;;
60641;SDS011;46837;52.446;-1.930;2023-03-01T00:59:07;13.86;;;7.80;;
60641;SDS011;46837;52.446;-1.930;2023-03-01T01:00:07;17.02;;;7.42;;
60641;SDS011;46837;52.446;-1.930;2023-03-01T01:01:08;12.98;;;7.84;;
60641;SDS011;46837;52.446;-1.930;2023-03-01T01:02:07;14.90;;;7.46;;
60641;SDS011;46837;52.446;-1.930;2023-03-01T01:03:07;9.80;;;5.36;;
60641;SDS011;46837;52.446;-1.930;2023-03-01T01:04:07;16.36;;;7.06;;
60641;SDS011;46837;52.446;-1.930;2023-03-01T01:05:07;11.18;;;6.94;;
60641;SDS011;46837;52.446;-1.930;2023-03-01T01:06:13;15.96;;;7.24;;
60641;SDS011;46837;52.446;-1.930;2023-03-01T01:07:07;12.48;;;7.18;;
60641;SDS011;46837;52.446;-1.930;2023-03-01T01:08:07;13.20;;;7.60;;
60641;SDS011;46837;52.446;-1.930;2023-03-01T01:09:07;12.14;;;7.06;;
60641;SDS011;46837;52.446;-1.930;2023-03-01T01:10:07;8.52;;;5.26;;
60641;SDS011;46837;52.446;-1.930;2023-03-01T01:11:08;7.28;;;5.54;;
60641;SDS011;46837;52.446;-1.930;2023-03-01T01:12:07;9.60;;;6.24;;
60641;SDS011;46837;52.446;-1.930;2023-03-01T01:13:07;13.40;;;6.26;;
60641;SDS011;46837;52.446;-1.930;2023-03-01T01:14:07;11.84;;;6.06;;
60641;SDS011;46837;52.446;-1.930;2023-03-01T01:15:07;9.10;;;5.48;;
60641;SDS011;46837;52.446;-1.930;2023-03-01T01:16:07;11.74;;;6.88;;
60641;SDS011;46837;52.446;-1.930;2023-03-01T01:17:07;12.86;;;5.38;;
60641;SDS011;46837;52.446;-1.930;2023-03-01T01:18:07;8.18;;;5.20;;
60641;SDS011;46837;52.446;-1.930;2023-03-01T01:19:07;7.64;;;5.30;;
60641;SDS011;46837;52.446;-1.930;2023-03-01T01:20:07;12.46;;;6.42;;
60641;SDS011;46837;52.446;-1.930;2023-03-01T01:21:08;8.62;;;5.44;;
60641;SDS011;46837;52.446;-1.930;2023-03-01T01:22:07;9.94;;;5.32;;
60641;SDS011;46837;52.446;-1.930;2023-03-01T01:23:07;11.98;;;4.94;;
60641;SDS011;46837;52.446;-1.930;2023-03-01T01:24:07;8.54;;;5.28;;
60641;SDS011;46837;52.446;-1.930;2023-03-01T01:25:07;7.48;;;3.70;;
60641;SDS011;46837;52.446;-1.930;2023-03-01T01:26:14;7.98;;;5.20;;
60641;SDS011;46837;52.446;-1.930;2023-03-01T01:27:08;11.90;;;4.80;;
60641;SDS011;46837;52.446;-1.930;2023-03-01T01:28:07;12.00;;;5.04;;
60641;SDS011;46837;52.446;-1.930;2023-03-01T01:29:07;10.06;;;5.02;;
60641;SDS011;46837;52.446;-1.930;2023-03-01T01:30:07;10.24;;;5.14;;
60641;SDS011;46837;52.446;-1.930;2023-03-01T01:31:07;6.82;;;3.82;;
60641;SDS011;46837;52.446;-1.930;2023-03-01T01:32:07;10.64;;;4.50;;
60641;SDS011;46837;52.446;-1.930;2023-03-01T01:33:07;5.24;;;3.54;;
60641;SDS011;46837;52.446;-1.930;2023-03-01T01:34:07;8.66;;;3.92;;
60641;SDS011;46837;52.446;-1.930;2023-03-01T01:35:07;9.16;;;4.44;;
60641;SDS011;46837;52.446;-1.930;2023-03-01T01:36:07;9.06;;;4.22;;
60641;SDS011;46837;52.446;-1.930;2023-03-01T01:37:08;6.96;;;3.96;;
60641;SDS011;46837;52.446;-1.930;2023-03-01T01:38:07;11.30;;;3.48;;
60641;SDS011;46837;52.446;-1.930;2023-03-01T01:39:07;8.38;;;3.74;;
60641;SDS011;46837;52.446;-1.930;2023-03-01T01:40:08;8.12;;;4.54;;
60641;SDS011;46837;52.446;-1.930;2023-03-01T01:41:07;11.26;;;5.26;;
60641;SDS011;46837;52.446;-1.930;2023-03-01T01:42:11;7.56;;;4.24;;
60641;SDS011;46837;52.446;-1.930;2023-03-01T01:43:09;19.12;;;4.96;;
60641;SDS011;46837;52.446;-1.930;2023-03-01T01:44:11;6.94;;;4.14;;
60641;SDS011;46837;52.446;-1.930;2023-03-01T01:46:53;13.64;;;4.40;;
60641;SDS011;46837;52.446;-1.930;2023-03-01T01:48:12;9.34;;;4.72;;
60641;SDS011;46837;52.446;-1.930;2023-03-01T01:49:13;11.34;;;4.40;;
60641;SDS011;46837;52.446;-1.930;2023-03-01T01:50:08;8.32;;;4.02;;
60641;SDS011;46837;52.446;-1.930;2023-03-01T01:51:08;15.20;;;4.10;;
60641;SDS011;46837;52.446;-1.930;2023-03-01T01:52:09;9.30;;;5.08;;
60641;SDS011;46837;52.446;-1.930;2023-03-01T01:53:09;10.54;;;4.38;;
60641;SDS011;46837;52.446;-1.930;2023-03-01T01:55:11;13.32;;;4.62;;
60641;SDS011;46837;52.446;-1.930;2023-03-01T01:56:07;9.74;;;3.80;;
60641;SDS011;46837;52.446;-1.930;2023-03-01T01:58:07;7.86;;;4.86;;
60641;SDS011;46837;52.446;-1.930;2023-03-01T01:59:07;9.02;;;4.52;;
60641;SDS011;46837;52.446;-1.930;2023-03-01T02:00:08;8.68;;;4.54;;
60641;SDS011;46837;52.446;-1.930;2023-03-01T02:01:07;10.40;;;4.92;;
60641;SDS011;46837;52.446;-1.930;2023-03-01T02:02:07;9.12;;;3.80;;
60641;SDS011;46837;52.446;-1.930;2023-03-01T02:03:10;14.36;;;4.52;;
60641;SDS011;46837;52.446;-1.930;2023-03-01T02:04:07;8.36;;;4.44;;
60641;SDS011;46837;52.446;-1.930;2023-03-01T02:05:14;12.02;;;4.56;;
60641;SDS011;46837;52.446;-1.930;2023-03-01T02:06:15;10.60;;;5.08;;
60641;SDS011;46837;52.446;-1.930;2023-03-01T02:07:09;13.06;;;4.80;;
60641;SDS011;46837;52.446;-1.930;2023-03-01T02:08:07;6.90;;;5.24;;
60641;SDS011;46837;52.446;-1.930;2023-03-01T02:09:10;10.02;;;5.60;;
60641;SDS011;46837;52.446;-1.930;2023-03-01T02:10:07;7.40;;;5.10;;
60641;SDS011;46837;52.446;-1.930;2023-03-01T02:11:07;11.56;;;5.30;;
60641;SDS011;46837;52.446;-1.930;2023-03-01T02:12:07;10.46;;;5.80;;
60641;SDS011;46837;52.446;-1.930;2023-03-01T02:13:07;9.26;;;4.88;;
60641;SDS011;46837;52.446;-1.930;2023-03-01T02:14:07;11.48;;;6.14;;
60641;SDS011;46837;52.446;-1.930;2023-03-01T02:15:07;9.14;;;3.62;;
60641;SDS011;46837;52.446;-1.930;2023-03-01T02:16:10;15.10;;;5.56;;
60641;SDS011;46837;52.446;-1.930;2023-03-01T02:17:07;10.98;;;5.26;;
60641;SDS011;46837;52.446;-1.930;2023-03-01T02:18:07;13.34;;;4.68;;
60641;SDS011;46837;52.446;-1.930;2023-03-01T02:19:07;7.46;;;4.16;;
60641;SDS011;46837;52.446;-1.930;2023-03-01T02:20:15;22.42;;;6.06;;
60641;SDS011;46837;52.446;-1.930;2023-03-01T02:23:07;17.34;;;6.72;;
60641;SDS011;46837;52.446;-1.930;2023-03-01T02:24:13;16.34;;;6.22;;
60641;SDS011;46837;52.446;-1.930;2023-03-01T02:25:12;10.68;;;5.54;;
60641;SDS011;46837;52.446;-1.930;2023-03-01T02:26:29;12.38;;;6.22;;
60641;SDS011;46837;52.446;-1.930;2023-03-01T02:27:07;14.66;;;7.08;;
60641;SDS011;46837;52.446;-1.930;2023-03-01T02:29:07;12.86;;;7.06;;
60641;SDS011;46837;52.446;-1.930;2023-03-01T02:30:07;17.40;;;7.64;;
60641;SDS011;46837;52.446;-1.930;2023-03-01T02:31:11;11.44;;;8.02;;
60641;SDS011;46837;52.446;-1.930;2023-03-01T02:32:07;15.50;;;8.16;;
60641;SDS011;46837;52.446;-1.930;2023-03-01T02:33:07;12.58;;;7.92;;
60641;SDS011;46837;52.446;-1.930;2023-03-01T02:34:08;15.42;;;8.04;;
60641;SDS011;46837;52.446;-1.930;2023-03-01T02:35:10;11.90;;;8.06;;
60641;SDS011;46837;52.446;-1.930;2023-03-01T02:36:10;12.72;;;8.00;;
60641;SDS011;46837;52.446;-1.930;2023-03-01T02:37:08;12.26;;;7.82;;
60641;SDS011;46837;52.446;-1.930;2023-03-01T02:38:07;10.72;;;8.00;;
60641;SDS011;46837;52.446;-1.930;2023-03-01T02:39:07;15.18;;;9.26;;
60641;SDS011;46837;52.446;-1.930;2023-03-01T02:40:08;18.50;;;9.14;;
60641;SDS011;46837;52.446;-1.930;2023-03-01T02:41:07;21.12;;;9.28;;
60641;SDS011;46837;52.446;-1.930;2023-03-01T02:42:07;14.54;;;8.64;;
60641;SDS011;46837;52.446;-1.930;2023-03-01T02:43:08;17.78;;;8.26;;
60641;SDS011;46837;52.446;-1.930;2023-03-01T02:44:07;15.52;;;8.74;;
60641;SDS011;46837;52.446;-1.930;2023-03-01T02:45:07;18.26;;;8.26;;
60641;SDS011;46837;52.446;-1.930;2023-03-01T02:46:08;20.96;;;9.32;;
60641;SDS011;46837;52.446;-1.930;2023-03-01T02:47:07;18.98;;;9.54;;
60641;SDS011;46837;52.446;-1.930;2023-03-01T02:48:07;15.62;;;9.56;;
60641;SDS011;46837;52.446;-1.930;2023-03-01T02:51:12;15.94;;;8.74;;
60641;SDS011;46837;52.446;-1.930;2023-03-01T02:55:11;14.68;;;7.98;;
60641;SDS011;46837;52.446;-1.930;2023-03-01T02:56:07;8.92;;;7.84;;
60641;SDS011;46837;52.446;-1.930;2023-03-01T02:57:07;8.92;;;6.98;;
60641;SDS011;46837;52.446;-1.930;2023-03-01T02:58:07;7.34;;;6.32;;
60641;SDS011;46837;52.446;-1.930;2023-03-01T02:59:07;8.94;;;6.26;;
60641;SDS011;46837;52.446;-1.930;2023-03-01T03:01:07;9.50;;;6.18;;
60641;SDS011;46837;52.446;-1.930;2023-03-01T03:02:07;7.28;;;5.42;;
60641;SDS011;46837;52.446;-1.930;2023-03-01T03:03:07;6.14;;;4.70;;
60641;SDS011;46837;52.446;-1.930;2023-03-01T03:04:09;7.30;;;5.78;;
60641;SDS011;46837;52.446;-1.930;2023-03-01T03:05:14;5.90;;;5.32;;
60641;SDS011;46837;52.446;-1.930;2023-03-01T03:06:07;6.28;;;4.08;;
60641;SDS011;46837;52.446;-1.930;2023-03-01T03:07:07;15.30;;;5.00;;
60641;SDS011;46837;52.446;-1.930;2023-03-01T03:08:07;6.88;;;5.08;;
60641;SDS011;46837;52.446;-1.930;2023-03-01T03:09:07;9.38;;;4.78;;
60641;SDS011;46837;52.446;-1.930;2023-03-01T03:10:08;4.46;;;4.00;;
60641;SDS011;46837;52.446;-1.930;2023-03-01T03:11:07;5.50;;;4.56;;
60641;SDS011;46837;52.446;-1.930;2023-03-01T03:12:07;7.10;;;3.54;;
60641;SDS011;46837;52.446;-1.930;2023-03-01T03:13:08;8.46;;;4.08;;
60641;SDS011;46837;52.446;-1.930;2023-03-01T03:14:07;8.74;;;4.00;;
60641;SDS011;46837;52.446;-1.930;2023-03-01T03:15:09;8.26;;;3.24;;
60641;SDS011;46837;52.446;-1.930;2023-03-01T03:16:07;8.28;;;3.62;;
60641;SDS011;46837;52.446;-1.930;2023-03-01T03:17:07;6.00;;;3.32;;
60641;SDS011;46837;52.446;-1.930;2023-03-01T03:18:08;8.46;;;3.48;;
60641;SDS011;46837;52.446;-1.930;2023-03-01T03:19:07;7.00;;;3.78;;
60641;SDS011;46837;52.446;-1.930;2023-03-01T03:20:08;6.40;;;4.28;;
60641;SDS011;46837;52.446;-1.930;2023-03-01T03:21:08;7.34;;;3.42;;
60641;SDS011;46837;52.446;-1.930;2023-03-01T03:22:07;5.36;;;2.78;;
60641;SDS011;46837;52.446;-1.930;2023-03-01T03:23:07;4.98;;;3.54;;
60641;SDS011;46837;52.446;-1.930;2023-03-01T03:24:07;7.16;;;3.42;;
60641;SDS011;46837;52.446;-1.930;2023-03-01T03:25:07;5.54;;;3.92;;
60641;SDS011;46837;52.446;-1.930;2023-03-01T03:26:07;5.18;;;3.72;;
60641;SDS011;46837;52.446;-1.930;2023-03-01T03:27:07;4.82;;;3.96;;
60641;SDS011;46837;52.446;-1.930;2023-03-01T03:28:10;4.54;;;4.02;;
60641;SDS011;46837;52.446;-1.930;2023-03-01T03:29:07;4.98;;;3.82;;
60641;SDS011;46837;52.446;-1.930;2023-03-01T03:30:10;5.38;;;3.80;;
60641;SDS011;46837;52.446;-1.930;2023-03-01T03:31:07;6.42;;;4.18;;
60641;SDS011;46837;52.446;-1.930;2023-03-01T03:32:07;4.18;;;3.76;;
60641;SDS011;46837;52.446;-1.930;2023-03-01T03:33:07;6.52;;;4.36;;
60641;SDS011;46837;52.446;-1.930;2023-03-01T03:34:07;6.84;;;4.44;;
60641;SDS011;46837;52.446;-1.930;2023-03-01T03:35:10;8.22;;;5.30;;
60641;SDS011;46837;52.446;-1.930;2023-03-01T03:36:07;6.94;;;5.04;;
60641;SDS011;46837;52.446;-1.930;2023-03-01T03:37:11;7.22;;;4.88;;
60641;SDS011;46837;52.446;-1.930;2023-03-01T03:38:10;8.76;;;7.70;;
60641;SDS011;46837;52.446;-1.930;2023-03-01T03:39:07;10.52;;;6.04;;
60641;SDS011;46837;52.446;-1.930;2023-03-01T03:40:11;8.36;;;5.82;;
60641;SDS011;46837;52.446;-1.930;2023-03-01T03:41:07;9.56;;;5.70;;
60641;SDS011;46837;52.446;-1.930;2023-03-01T03:42:07;13.68;;;7.78;;
60641;SDS011;46837;52.446;-1.930;2023-03-01T03:43:10;12.94;;;6.66;;
60641;SDS011;46837;52.446;-1.930;2023-03-01T03:44:07;13.96;;;6.82;;
60641;SDS011;46837;52.446;-1.930;2023-03-01T03:45:07;6.72;;;6.02;;
60641;SDS011;46837;52.446;-1.930;2023-03-01T03:46:07;7.36;;;5.38;;
60641;SDS011;46837;52.446;-1.930;2023-03-01T03:47:07;9.82;;;7.00;;
60641;SDS011;46837;52.446;-1.930;2023-03-01T03:48:08;13.70;;;6.98;;
60641;SDS011;46837;52.446;-1.930;2023-03-01T03:49:07;9.26;;;7.10;;
60641;SDS011;46837;52.446;-1.930;2023-03-01T03:50:07;11.00;;;7.14;;
60641;SDS011;46837;52.446;-1.930;2023-03-01T03:51:09;9.62;;;6.70;;
60641;SDS011;46837;52.446;-1.930;2023-03-01T03:52:11;12.08;;;7.44;;
60641;SDS011;46837;52.446;-1.930;2023-03-01T03:53:10;11.50;;;7.90;;
60641;SDS011;46837;52.446;-1.930;2023-03-01T03:54:07;17.84;;;7.72;;
60641;SDS011;46837;52.446;-1.930;2023-03-01T03:55:10;11.74;;;8.58;;
60641;SDS011;46837;52.446;-1.930;2023-03-01T03:56:07;9.36;;;7.62;;
60641;SDS011;46837;52.446;-1.930;2023-03-01T03:57:07;11.14;;;7.66;;
60641;SDS011;46837;52.446;-1.930;2023-03-01T03:58:08;12.52;;;8.14;;
60641;SDS011;46837;52.446;-1.930;2023-03-01T03:59:07;10.76;;;7.72;;
60641;SDS011;46837;52.446;-1.930;2023-03-01T04:00:08;13.56;;;7.76;;
60641;SDS011;46837;52.446;-1.930;2023-03-01T04:01:07;11.64;;;7.78;;
60641;SDS011;46837;52.446;-1.930;2023-03-01T04:02:07;16.28;;;8.18;;
60641;SDS011;46837;52.446;-1.930;2023-03-01T04:03:07;11.58;;;7.52;;
60641;SDS011;46837;52.446;-1.930;2023-03-01T04:04:08;11.96;;;7.40;;
60641;SDS011;46837;52.446;-1.930;2023-03-01T04:05:07;11.48;;;8.20;;
60641;SDS011;46837;52.446;-1.930;2023-03-01T04:06:07;13.50;;;7.86;;
60641;SDS011;46837;52.446;-1.930;2023-03-01T04:07:07;11.42;;;6.68;;
60641;SDS011;46837;52.446;-1.930;2023-03-01T04:08:08;13.12;;;7.98;;
60641;SDS011;46837;52.446;-1.930;2023-03-01T04:09:07;12.80;;;6.96;;
60641;SDS011;46837;52.446;-1.930;2023-03-01T04:10:16;8.46;;;7.14;;
60641;SDS011;46837;52.446;-1.930;2023-03-01T04:11:11;10.68;;;7.02;;
60641;SDS011;46837;52.446;-1.930;2023-03-01T04:12:07;10.66;;;7.32;;
60641;SDS011;46837;52.446;-1.930;2023-03-01T04:13:08;11.32;;;7.74;;
60641;SDS011;46837;52.446;-1.930;2023-03-01T04:14:07;14.40;;;7.56;;
60641;SDS011;46837;52.446;-1.930;2023-03-01T04:15:11;8.68;;;7.42;;
60641;SDS011;46837;52.446;-1.930;2023-03-01T04:16:07;7.54;;;6.32;;
60641;SDS011;46837;52.446;-1.930;2023-03-01T04:17:07;12.64;;;7.80;;
60641;SDS011;46837;52.446;-1.930;2023-03-01T04:18:07;9.56;;;7.08;;
60641;SDS011;46837;52.446;-1.930;2023-03-01T04:19:07;11.56;;;7.08;;
60641;SDS011;46837;52.446;-1.930;2023-03-01T04:20:10;13.60;;;7.78;;
60641;SDS011;46837;52.446;-1.930;2023-03-01T04:21:07;12.16;;;7.50;;
60641;SDS011;46837;52.446;-1.930;2023-03-01T04:22:10;10.74;;;7.18;;
60641;SDS011;46837;52.446;-1.930;2023-03-01T04:23:14;12.62;;;6.28;;
60641;SDS011;46837;52.446;-1.930;2023-03-01T04:24:07;10.18;;;6.78;;
60641;SDS011;46837;52.446;-1.930;2023-03-01T04:25:07;10.38;;;6.88;;
60641;SDS011;46837;52.446;-1.930;2023-03-01T04:26:07;17.26;;;7.02;;
60641;SDS011;46837;52.446;-1.930;2023-03-01T04:27:07;10.86;;;7.50;;
60641;SDS011;46837;52.446;-1.930;2023-03-01T04:28:07;14.94;;;6.50;;
60641;SDS011;46837;52.446;-1.930;2023-03-01T04:29:07;16.86;;;6.78;;
60641;SDS011;46837;52.446;-1.930;2023-03-01T04:30:08;13.46;;;7.40;;
60641;SDS011;46837;52.446;-1.930;2023-03-01T04:31:12;11.18;;;6.78;;
60641;SDS011;46837;52.446;-1.930;2023-03-01T04:32:07;8.86;;;6.50;;
60641;SDS011;46837;52.446;-1.930;2023-03-01T04:33:07;11.30;;;7.24;;
60641;SDS011;46837;52.446;-1.930;2023-03-01T04:34:07;6.82;;;5.86;;
60641;SDS011;46837;52.446;-1.930;2023-03-01T04:35:07;14.00;;;6.06;;
60641;SDS011;46837;52.446;-1.930;2023-03-01T04:36:07;15.64;;;6.98;;
60641;SDS011;46837;52.446;-1.930;2023-03-01T04:37:07;14.82;;;6.40;;
60641;SDS011;46837;52.446;-1.930;2023-03-01T04:38:07;9.18;;;5.86;;
60641;SDS011;46837;52.446;-1.930;2023-03-01T04:39:11;10.14;;;6.46;;
60641;SDS011;46837;52.446;-1.930;2023-03-01T04:40:11;9.10;;;5.24;;
60641;SDS011;46837;52.446;-1.930;2023-03-01T04:41:08;8.04;;;5.22;;
60641;SDS011;46837;52.446;-1.930;2023-03-01T04:42:07;9.86;;;5.46;;
60641;SDS011;46837;52.446;-1.930;2023-03-01T04:43:07;11.92;;;6.32;;
60641;SDS011;46837;52.446;-1.930;2023-03-01T04:44:07;12.58;;;6.10;;
60641;SDS011;46837;52.446;-1.930;2023-03-01T04:45:11;7.10;;;5.70;;
60641;SDS011;46837;52.446;-1.930;2023-03-01T04:46:08;11.40;;;5.72;;
60641;SDS011;46837;52.446;-1.930;2023-03-01T04:47:07;14.40;;;6.48;;
60641;SDS011;46837;52.446;-1.930;2023-03-01T04:48:07;9.28;;;6.14;;
60641;SDS011;46837;52.446;-1.930;2023-03-01T04:49:07;13.60;;;7.14;;
60641;SDS011;46837;52.446;-1.930;2023-03-01T04:50:07;8.52;;;6.70;;
60641;SDS011;46837;52.446;-1.930;2023-03-01T04:51:07;13.74;;;6.72;;
60641;SDS011;46837;52.446;-1.930;2023-03-01T04:52:07;8.84;;;5.94;;
60641;SDS011;46837;52.446;-1.930;2023-03-01T04:53:07;8.40;;;6.40;;
60641;SDS011;46837;52.446;-1.930;2023-03-01T04:54:09;9.78;;;6.38;;
60641;SDS011;46837;52.446;-1.930;2023-03-01T04:55:07;11.72;;;5.80;;
60641;SDS011;46837;52.446;-1.930;2023-03-01T04:56:07;8.64;;;6.16;;
60641;SDS011;46837;52.446;-1.930;2023-03-01T04:57:07;16.46;;;6.06;;
60641;SDS011;46837;52.446;-1.930;2023-03-01T04:58:07;10.08;;;6.62;;
60641;SDS011;46837;52.446;-1.930;2023-03-01T04:59:07;13.06;;;7.26;;
60641;SDS011;46837;52.446;-1.930;2023-03-01T05:00:12;10.00;;;5.70;;
60641;SDS011;46837;52.446;-1.930;2023-03-01T05:01:15;14.72;;;7.26;;
60641;SDS011;46837;52.446;-1.930;2023-03-01T05:02:07;12.20;;;6.22;;
60641;SDS011;46837;52.446;-1.930;2023-03-01T05:03:07;10.56;;;6.88;;
60641;SDS011;46837;52.446;-1.930;2023-03-01T05:04:07;16.22;;;6.52;;
60641;SDS011;46837;52.446;-1.930;2023-03-01T05:05:07;11.80;;;6.78;;
60641;SDS011;46837;52.446;-1.930;2023-03-01T05:06:07;12.20;;;7.08;;
60641;SDS011;46837;52.446;-1.930;2023-03-01T05:07:07;10.30;;;6.28;;
60641;SDS011;46837;52.446;-1.930;2023-03-01T05:08:07;19.66;;;7.46;;
60641;SDS011;46837;52.446;-1.930;2023-03-01T05:09:07;14.30;;;6.72;;
60641;SDS011;46837;52.446;-1.930;2023-03-01T05:10:07;9.86;;;5.94;;
60641;SDS011;46837;52.446;-1.930;2023-03-01T05:11:07;7.84;;;5.64;;
60641;SDS011;46837;52.446;-1.930;2023-03-01T05:12:07;6.94;;;5.98;;
60641;SDS011;46837;52.446;-1.930;2023-03-01T05:13:07;17.10;;;6.54;;
60641;SDS011;46837;52.446;-1.930;2023-03-01T05:14:07;9.86;;;6.00;;
60641;SDS011;46837;52.446;-1.930;2023-03-01T05:15:07;9.06;;;6.80;;
60641;SDS011;46837;52.446;-1.930;2023-03-01T05:16:07;8.42;;;6.14;;
60641;SDS011;46837;52.446;-1.930;2023-03-01T05:17:07;7.60;;;5.38;;
60641;SDS011;46837;52.446;-1.930;2023-03-01T05:18:11;9.46;;;5.92;;
60641;SDS011;46837;52.446;-1.930;2023-03-01T05:19:11;13.22;;;6.12;;
60641;SDS011;46837;52.446;-1.930;2023-03-01T05:20:09;15.02;;;6.42;;
60641;SDS011;46837;52.446;-1.930;2023-03-01T05:21:11;12.88;;;6.16;;
60641;SDS011;46837;52.446;-1.930;2023-03-01T05:22:07;9.04;;;5.62;;
60641;SDS011;46837;52.446;-1.930;2023-03-01T05:23:07;9.60;;;6.30;;
60641;SDS011;46837;52.446;-1.930;2023-03-01T05:24:07;10.64;;;6.14;;
60641;SDS011;46837;52.446;-1.930;2023-03-01T05:25:07;19.82;;;6.72;;
60641;SDS011;46837;52.446;-1.930;2023-03-01T05:26:07;7.86;;;5.46;;
60641;SDS011;46837;52.446;-1.930;2023-03-01T05:27:07;10.22;;;6.46;;
60641;SDS011;46837;52.446;-1.930;2023-03-01T05:28:09;7.76;;;5.86;;
60641;SDS011;46837;52.446;-1.930;2023-03-01T05:29:07;6.94;;;5.80;;
60641;SDS011;46837;52.446;-1.930;2023-03-01T05:30:11;7.10;;;5.56;;
60641;SDS011;46837;52.446;-1.930;2023-03-01T05:31:10;9.96;;;5.30;;
60641;SDS011;46837;52.446;-1.930;2023-03-01T05:32:07;10.00;;;6.14;;
60641;SDS011;46837;52.446;-1.930;2023-03-01T05:33:07;8.82;;;5.60;;
60641;SDS011;46837;52.446;-1.930;2023-03-01T05:34:07;8.50;;;6.42;;
60641;SDS011;46837;52.446;-1.930;2023-03-01T05:35:07;6.78;;;5.40;;
60641;SDS011;46837;52.446;-1.930;2023-03-01T05:36:07;8.08;;;5.76;;
60641;SDS011;46837;52.446;-1.930;2023-03-01T05:37:08;8.96;;;5.28;;
60641;SDS011;46837;52.446;-1.930;2023-03-01T05:38:07;10.16;;;7.20;;
60641;SDS011;46837;52.446;-1.930;2023-03-01T05:39:07;7.90;;;5.68;;
60641;SDS011;46837;52.446;-1.930;2023-03-01T05:40:07;9.46;;;6.60;;
60641;SDS011;46837;52.446;-1.930;2023-03-01T05:41:12;9.02;;;5.44;;
60641;SDS011;46837;52.446;-1.930;2023-03-01T05:42:09;13.10;;;6.12;;
60641;SDS011;46837;52.446;-1.930;2023-03-01T05:43:07;6.74;;;5.02;;
60641;SDS011;46837;52.446;-1.930;2023-03-01T05:44:07;11.06;;;5.74;;
60641;SDS011;46837;52.446;-1.930;2023-03-01T05:45:10;8.64;;;5.18;;
60641;SDS011;46837;52.446;-1.930;2023-03-01T05:46:07;7.00;;;5.68;;
60641;SDS011;46837;52.446;-1.930;2023-03-01T05:47:07;8.18;;;5.74;;
60641;SDS011;46837;52.446;-1.930;2023-03-01T05:48:07;8.74;;;5.86;;
60641;SDS011;46837;52.446;-1.930;2023-03-01T05:49:07;9.92;;;6.50;;
60641;SDS011;46837;52.446;-1.930;2023-03-01T05:50:07;6.58;;;5.68;;
60641;SDS011;46837;52.446;-1.930;2023-03-01T05:51:07;9.72;;;5.34;;
60641;SDS011;46837;52.446;-1.930;2023-03-01T05:52:07;11.30;;;5.74;;
60641;SDS011;46837;52.446;-1.930;2023-03-01T05:53:12;5.82;;;4.44;;
60641;SDS011;46837;52.446;-1.930;2023-03-01T05:54:07;6.80;;;5.10;;
60641;SDS011;46837;52.446;-1.930;2023-03-01T05:55:07;6.48;;;5.28;;
60641;SDS011;46837;52.446;-1.930;2023-03-01T05:56:07;13.58;;;5.82;;
60641;SDS011;46837;52.446;-1.930;2023-03-01T05:57:07;7.60;;;5.68;;
60641;SDS011;46837;52.446;-1.930;2023-03-01T05:58:07;5.48;;;4.94;;
60641;SDS011;46837;52.446;-1.930;2023-03-01T05:59:07;5.72;;;4.54;;
60641;SDS011;46837;52.446;-1.930;2023-03-01T06:00:07;6.98;;;4.70;;
60641;SDS011;46837;52.446;-1.930;2023-03-01T06:01:10;6.28;;;4.86;;
60641;SDS011;46837;52.446;-1.930;2023-03-01T06:02:07;7.00;;;5.24;;
60641;SDS011;46837;52.446;-1.930;2023-03-01T06:03:09;10.72;;;5.60;;
60641;SDS011;46837;52.446;-1.930;2023-03-01T06:04:07;6.48;;;3.92;;
60641;SDS011;46837;52.446;-1.930;2023-03-01T06:05:07;8.58;;;4.62;;
60641;SDS011;46837;52.446;-1.930;2023-03-01T06:06:07;9.28;;;5.44;;